METAR Data
IDs: Format: Raw Decoded Include TAF

Data at: 0252 UTC 24 Oct 2019

METAR for:KRDK (Red Oak Muni, IA, US)
Text:KRDK 240235Z AUTO 35006KT 10SM OVC013 06/04 A3015 RMK AO2
Temperature: 6.0°C ( 43°F)
Dewpoint: 4.0°C ( 39°F) [RH = 87%]
Pressure (altimeter):30.15 inches Hg (1021.1 mb)
Winds:from the N (350 degrees) at 7 MPH (6 knots; 3.1 m/s)
Visibility:10 or more sm (16+ km)
Ceiling:1300 feet AGL
Clouds: overcast cloud deck at 1300 feet AGL
QC Flag:automated observation with no human augmentation